createdAt,value
2023-02-04T00:01:34.472Z,59.94
2023-02-04T00:04:02.777Z,60.11
2023-02-04T00:06:31.044Z,60.43
2023-02-04T00:08:59.340Z,60.47
2023-02-04T00:11:27.853Z,60.51
2023-02-04T00:13:56.118Z,60.78
2023-02-04T00:16:24.508Z,60.57
2023-02-04T00:18:53.009Z,60.72
2023-02-04T00:21:21.333Z,61.11
2023-02-04T00:23:52.473Z,61.26
2023-02-04T00:26:20.719Z,61.29
2023-02-04T00:28:49.020Z,61.36
2023-02-04T00:31:18.353Z,61.56
2023-02-04T00:33:46.823Z,61.31
2023-02-04T00:36:14.924Z,61.35
2023-02-04T00:38:43.337Z,61.52
2023-02-04T00:41:12.179Z,61.54
2023-02-04T00:43:40.872Z,61.44
2023-02-04T00:46:09.145Z,61.57
2023-02-04T00:48:38.343Z,61.55
2023-02-04T00:51:06.550Z,61.94
2023-02-04T00:53:35.684Z,61.85
2023-02-04T00:56:05.751Z,61.96
2023-02-04T00:58:34.894Z,61.80
2023-02-04T01:01:04.783Z,61.68
2023-02-04T01:03:33.336Z,61.64
2023-02-04T01:06:01.810Z,61.60
2023-02-04T01:08:31.753Z,61.59
2023-02-04T01:11:00.287Z,61.43
2023-02-04T01:13:29.048Z,61.57
2023-02-04T01:15:57.223Z,61.44
2023-02-04T01:18:25.532Z,61.28
2023-02-04T01:20:53.915Z,61.36
2023-02-04T01:23:22.239Z,61.45
2023-02-04T01:25:51.785Z,61.39
2023-02-04T01:28:20.099Z,61.51
2023-02-04T01:30:48.447Z,61.38
2023-02-04T01:33:20.488Z,61.55
2023-02-04T01:35:48.710Z,61.54
2023-02-04T01:38:17.088Z,61.55
2023-02-04T01:40:45.658Z,61.58
2023-02-04T01:43:14.179Z,61.50
2023-02-04T01:45:42.542Z,61.63
2023-02-04T01:48:12.855Z,61.55
2023-02-04T01:50:41.129Z,61.52
2023-02-04T01:53:09.526Z,61.28
2023-02-04T01:55:37.867Z,61.41
2023-02-04T01:58:10.830Z,61.65
2023-02-04T02:00:39.799Z,61.42
2023-02-04T02:03:12.272Z,61.37
2023-02-04T02:05:45.596Z,61.15
2023-02-04T02:08:14.193Z,61.13
2023-02-04T02:10:44.437Z,61.18
2023-02-04T02:13:16.858Z,61.09
2023-02-04T02:15:45.395Z,61.22
2023-02-04T02:18:14.587Z,61.16
2023-02-04T02:20:43.365Z,61.05
2023-02-04T02:23:45.181Z,61.07
2023-02-04T02:26:14.313Z,61.15
2023-02-04T02:28:42.704Z,61.07
2023-02-04T02:31:11.477Z,61.07
2023-02-04T02:33:40.357Z,60.96
2023-02-04T02:36:08.557Z,60.86
2023-02-04T02:38:36.893Z,60.81
2023-02-04T02:41:05.586Z,60.57
2023-02-04T02:43:35.027Z,60.57
2023-02-04T02:46:03.225Z,60.55
2023-02-04T02:48:32.867Z,60.50
2023-02-04T02:51:01.130Z,60.22
2023-02-04T02:53:29.763Z,60.42
2023-02-04T02:55:58.509Z,60.26
2023-02-04T02:58:29.780Z,60.28
2023-02-04T03:00:58.087Z,60.11
2023-02-04T03:03:28.226Z,60.01
2023-02-04T03:05:59.554Z,60.05
2023-02-04T03:08:27.765Z,60.09
2023-02-04T03:10:58.400Z,60.15
2023-02-04T03:13:28.687Z,60.09
2023-02-04T03:16:01.854Z,60.12
2023-02-04T03:18:31.728Z,60.03
2023-02-04T03:20:59.993Z,59.92
2023-02-04T03:23:28.207Z,59.88
2023-02-04T03:25:56.468Z,59.79
2023-02-04T03:28:25.419Z,59.44
2023-02-04T03:30:56.489Z,59.47
2023-02-04T03:33:29.273Z,59.46
2023-02-04T03:35:58.477Z,59.56
2023-02-04T03:38:27.136Z,59.57
2023-02-04T03:40:55.332Z,59.57
2023-02-04T03:43:23.727Z,59.41
2023-02-04T03:45:52.069Z,59.31
2023-02-04T03:48:20.960Z,59.27
2023-02-04T03:50:49.204Z,59.30
2023-02-04T03:53:17.891Z,59.17
2023-02-04T03:55:48.087Z,59.39
2023-02-04T03:58:17.077Z,59.41
2023-02-04T04:00:45.489Z,59.23
2023-02-04T04:03:13.897Z,59.17
2023-02-04T04:05:42.326Z,59.09
2023-02-04T04:08:10.589Z,59.12
2023-02-04T04:10:41.119Z,59.11
2023-02-04T04:13:13.992Z,59.20
2023-02-04T04:15:42.751Z,59.59
2023-02-04T04:18:10.977Z,59.52
2023-02-04T04:20:40.972Z,59.43
2023-02-04T04:23:10.445Z,59.53
2023-02-04T04:25:38.616Z,59.36
2023-02-04T04:28:07.532Z,59.34
2023-02-04T04:30:35.925Z,59.32
2023-02-04T04:33:04.654Z,59.11
2023-02-04T04:35:33.716Z,59.32
2023-02-04T04:38:02.921Z,59.03
2023-02-04T04:40:32.506Z,58.95
2023-02-04T04:43:01.436Z,58.82
2023-02-04T04:45:30.155Z,58.84
2023-02-04T04:47:59.164Z,58.91
2023-02-04T04:50:27.521Z,58.79
2023-02-04T04:52:55.892Z,58.80
2023-02-04T04:55:24.404Z,58.59
2023-02-04T04:57:54.846Z,58.76
2023-02-04T05:00:23.287Z,58.76
2023-02-04T05:02:52.935Z,58.58
2023-02-04T05:05:21.279Z,58.54
2023-02-04T05:07:49.479Z,58.56
2023-02-04T05:10:18.717Z,58.53
2023-02-04T05:12:48.061Z,58.42
2023-02-04T05:15:22.385Z,58.53
2023-02-04T05:17:51.224Z,58.51
2023-02-04T05:20:19.548Z,58.54
2023-02-04T05:22:47.683Z,58.54
2023-02-04T05:25:17.796Z,58.56
2023-02-04T05:27:46.580Z,58.57
2023-02-04T05:30:15.137Z,58.68
2023-02-04T05:32:43.966Z,58.67
2023-02-04T05:35:12.186Z,58.64
2023-02-04T05:37:40.450Z,58.94
2023-02-04T05:40:12.331Z,58.95
2023-02-04T05:42:42.062Z,58.75
2023-02-04T05:45:14.089Z,58.97
2023-02-04T05:47:42.791Z,58.98
2023-02-04T05:50:13.401Z,59.11
2023-02-04T05:52:41.799Z,59.15
2023-02-04T05:55:11.501Z,59.18
2023-02-04T05:57:39.804Z,59.06
2023-02-04T06:00:09.012Z,58.92
2023-02-04T06:02:44.476Z,58.98
2023-02-04T06:05:12.724Z,58.95
2023-02-04T06:07:41.448Z,58.96
2023-02-04T06:10:10.492Z,58.91
2023-02-04T06:12:39.196Z,59.08
2023-02-04T06:15:08.445Z,59.02
2023-02-04T06:17:37.190Z,58.79
2023-02-04T06:20:06.387Z,59.00
2023-02-04T06:22:34.736Z,58.98
2023-02-04T06:25:04.633Z,59.22
2023-02-04T06:27:34.471Z,59.23
2023-02-04T06:30:02.738Z,59.16
2023-02-04T06:32:31.962Z,59.31
2023-02-04T06:35:00.771Z,59.23
2023-02-04T06:37:31.145Z,59.07
2023-02-04T06:39:59.334Z,59.07
2023-02-04T06:42:27.949Z,59.01
2023-02-04T06:44:56.251Z,58.83
2023-02-04T06:47:24.440Z,58.94
2023-02-04T06:49:52.687Z,58.90
2023-02-04T06:52:21.296Z,58.80
2023-02-04T06:54:49.583Z,58.77
2023-02-04T06:57:17.902Z,58.79
2023-02-04T06:59:47.479Z,58.84
2023-02-04T07:02:16.329Z,58.97
2023-02-04T07:04:46.084Z,59.09
2023-02-04T07:07:16.620Z,59.36
2023-02-04T07:09:44.881Z,59.63
2023-02-04T07:12:14.372Z,59.84
2023-02-04T07:14:44.192Z,59.91
2023-02-04T07:17:13.253Z,59.93
2023-02-04T07:19:41.430Z,60.26
2023-02-04T07:22:09.881Z,60.22
2023-02-04T07:24:38.320Z,60.40
2023-02-04T07:27:08.199Z,60.26
2023-02-04T07:29:36.966Z,60.43
2023-02-04T07:32:06.262Z,60.59
2023-02-04T07:34:34.775Z,60.52
2023-02-04T07:37:03.901Z,60.53
2023-02-04T07:39:32.236Z,60.44
2023-02-04T07:42:00.612Z,60.47
2023-02-04T07:44:33.652Z,60.51
2023-02-04T07:47:02.992Z,60.36
2023-02-04T07:49:32.024Z,60.43
2023-02-04T07:52:00.501Z,60.41
2023-02-04T07:54:29.059Z,60.35
2023-02-04T07:56:57.563Z,60.42
2023-02-04T07:59:25.772Z,60.36
2023-02-04T08:01:54.162Z,60.30
2023-02-04T08:04:22.814Z,60.28
2023-02-04T08:06:51.134Z,60.20
2023-02-04T08:09:19.572Z,60.00
2023-02-04T08:11:48.204Z,60.00
2023-02-04T08:14:16.403Z,59.75
2023-02-04T08:16:44.610Z,59.36
2023-02-04T08:19:19.023Z,58.95
2023-02-04T08:21:47.940Z,58.64
2023-02-04T08:24:16.333Z,58.40
2023-02-04T08:26:44.654Z,58.20
2023-02-04T08:29:13.050Z,57.95
2023-02-04T08:31:41.368Z,57.63
2023-02-04T08:34:10.232Z,57.45
2023-02-04T08:36:38.380Z,57.19
2023-02-04T08:39:07.040Z,56.91
2023-02-04T08:41:35.472Z,56.58
2023-02-04T08:44:03.926Z,56.34
2023-02-04T08:46:32.264Z,56.37
2023-02-04T08:49:00.876Z,56.37
2023-02-04T08:51:30.212Z,56.33
2023-02-04T08:53:58.458Z,56.12
2023-02-04T08:56:26.863Z,56.27
2023-02-04T08:58:55.247Z,56.47
2023-02-04T09:01:23.651Z,56.27
2023-02-04T09:03:51.884Z,56.14
2023-02-04T09:06:20.137Z,56.15
2023-02-04T09:08:48.303Z,56.20
2023-02-04T09:11:16.684Z,55.97
2023-02-04T09:13:44.984Z,55.92
2023-02-04T09:16:14.535Z,55.79
2023-02-04T09:18:43.048Z,56.08
2023-02-04T09:21:11.190Z,56.14
2023-02-04T09:23:39.400Z,55.94
2023-02-04T09:26:07.626Z,55.51
2023-02-04T09:28:36.036Z,55.33
2023-02-04T09:31:06.594Z,55.16
2023-02-04T09:33:35.357Z,54.96
2023-02-04T09:36:03.909Z,54.71
2023-02-04T09:38:32.474Z,54.69
2023-02-04T09:41:02.671Z,54.94
2023-02-04T09:43:36.990Z,54.87
2023-02-04T09:46:05.265Z,54.74
2023-02-04T09:48:34.042Z,54.65
2023-02-04T09:51:06.884Z,54.53
2023-02-04T09:53:35.686Z,54.54
2023-02-04T09:56:04.238Z,54.58
2023-02-04T09:58:34.020Z,54.64
2023-02-04T10:01:11.913Z,54.94
2023-02-04T10:03:46.710Z,55.05
2023-02-04T10:06:20.232Z,54.85
2023-02-04T10:08:50.165Z,54.72
2023-02-04T10:11:20.405Z,54.80
2023-02-04T10:13:50.562Z,54.81
2023-02-04T10:16:21.602Z,54.93
2023-02-04T10:18:50.172Z,54.97
2023-02-04T10:21:27.274Z,55.03
2023-02-04T10:23:57.403Z,55.05
2023-02-04T10:26:28.738Z,55.39
2023-02-04T10:29:09.681Z,55.40
2023-02-04T10:31:40.072Z,55.74
2023-02-04T10:34:31.509Z,55.80
2023-02-04T10:37:01.421Z,55.96
2023-02-04T10:39:30.392Z,55.99
2023-02-04T10:42:00.037Z,56.09
2023-02-04T10:44:36.315Z,56.36
2023-02-04T10:47:06.933Z,56.48
2023-02-04T10:49:36.808Z,56.46
2023-02-04T10:52:14.256Z,56.55
2023-02-04T10:54:42.457Z,56.71
2023-02-04T10:57:17.612Z,56.66
2023-02-04T10:59:45.967Z,56.52
2023-02-04T11:02:55.291Z,56.35
2023-02-04T11:05:25.567Z,56.58
2023-02-04T11:07:54.136Z,56.69
2023-02-04T11:10:25.636Z,56.62
2023-02-04T11:13:03.119Z,56.43
2023-02-04T11:15:55.388Z,56.55
2023-02-04T11:18:23.604Z,56.68
2023-02-04T11:20:54.324Z,56.76
2023-02-04T11:23:32.785Z,56.88
2023-02-04T11:26:17.448Z,56.94
2023-02-04T11:28:52.440Z,57.20
2023-02-04T11:31:21.734Z,57.29
2023-02-04T11:33:51.045Z,57.31
2023-02-04T11:36:20.544Z,57.49
2023-02-04T11:38:50.084Z,57.83
2023-02-04T11:41:33.569Z,58.00
2023-02-04T11:44:01.918Z,58.17
2023-02-04T11:46:30.427Z,58.49
2023-02-04T11:48:59.585Z,58.75
2023-02-04T11:51:34.442Z,58.99
2023-02-04T11:54:02.877Z,59.07
2023-02-04T11:56:31.136Z,59.20
2023-02-04T11:58:59.385Z,59.34
2023-02-04T13:43:29.204Z,55.18
2023-02-04T13:45:58.186Z,51.83
2023-02-04T13:48:26.865Z,51.83
2023-02-04T13:50:56.585Z,51.80
2023-02-04T13:53:27.088Z,51.71
2023-02-04T13:55:56.229Z,51.90
2023-02-04T13:58:24.898Z,51.40
2023-02-04T14:00:57.663Z,51.23
2023-02-04T14:03:27.097Z,50.88
2023-02-04T14:05:55.843Z,50.87
2023-02-04T14:08:24.377Z,50.68
2023-02-04T14:10:52.614Z,50.71
2023-02-04T14:13:20.943Z,50.51
2023-02-04T14:15:49.102Z,50.58
2023-02-04T14:18:18.310Z,50.52
2023-02-04T14:20:47.720Z,50.66
2023-02-04T14:23:16.601Z,50.70
2023-02-04T14:25:45.140Z,50.14
2023-02-04T14:28:13.581Z,50.18
2023-02-04T14:30:41.765Z,50.46
2023-02-04T14:33:10.250Z,50.30
2023-02-04T14:35:39.409Z,50.19
2023-02-04T14:38:07.755Z,50.32
2023-02-04T14:40:36.193Z,50.33
2023-02-04T14:43:04.544Z,50.00
2023-02-04T14:45:33.264Z,49.90
2023-02-04T14:48:02.953Z,49.71
2023-02-04T14:50:31.945Z,49.44
2023-02-04T14:53:00.626Z,49.60
2023-02-04T14:55:29.107Z,50.09
2023-02-04T14:57:57.584Z,50.09
2023-02-04T15:00:35.982Z,50.25
2023-02-04T15:03:05.873Z,50.28
2023-02-04T15:05:37.240Z,50.39
2023-02-04T15:08:06.987Z,50.43
2023-02-04T15:10:38.938Z,50.74
2023-02-04T15:13:07.813Z,50.78
2023-02-04T15:15:37.562Z,50.14
2023-02-04T15:18:06.090Z,50.04
2023-02-04T15:20:34.770Z,50.05
2023-02-04T15:23:04.609Z,49.96
2023-02-04T15:25:33.480Z,49.81
2023-02-04T15:28:01.980Z,49.90
2023-02-04T15:30:30.703Z,50.13
2023-02-04T15:32:59.972Z,50.35
2023-02-04T15:35:28.283Z,50.43
2023-02-04T15:37:56.817Z,50.51
2023-02-04T15:40:25.779Z,50.73
2023-02-04T15:42:54.150Z,50.72
2023-02-04T15:45:22.537Z,50.80
2023-02-04T15:47:51.221Z,50.98
2023-02-04T15:50:20.819Z,51.03
2023-02-04T15:52:50.067Z,51.03
2023-02-04T15:55:18.379Z,51.07
2023-02-04T15:57:46.634Z,50.92
2023-02-04T16:00:15.134Z,51.06
2023-02-04T16:02:43.778Z,50.94
2023-02-04T16:05:12.637Z,50.81
2023-02-04T16:07:42.077Z,50.91
2023-02-04T16:10:10.663Z,50.90
2023-02-04T16:12:39.767Z,50.89
2023-02-04T16:15:08.729Z,50.96
2023-02-04T16:17:37.984Z,51.14
2023-02-04T16:20:07.335Z,51.03
2023-02-04T16:22:35.767Z,51.01
2023-02-04T16:25:04.864Z,50.92
2023-02-04T16:27:34.071Z,50.89
2023-02-04T16:30:03.889Z,50.93
2023-02-04T16:32:35.252Z,51.06
2023-02-04T16:35:04.650Z,50.99
2023-02-04T16:37:33.264Z,51.26
2023-02-04T16:40:01.993Z,51.28
2023-02-04T16:42:31.789Z,51.35
2023-02-04T16:45:00.348Z,51.37
2023-02-04T16:47:28.772Z,51.11
2023-02-04T16:50:01.158Z,51.17
2023-02-04T16:52:29.918Z,51.12
2023-02-04T16:54:59.124Z,51.37
2023-02-04T16:57:27.285Z,51.49
2023-02-04T16:59:56.981Z,51.60
2023-02-04T17:02:26.463Z,51.47
2023-02-04T17:04:55.583Z,51.34
2023-02-04T17:07:24.826Z,51.32
2023-02-04T17:09:53.846Z,51.52
2023-02-04T17:12:26.479Z,51.52
2023-02-04T17:14:59.499Z,51.71
2023-02-04T17:17:28.940Z,51.64
2023-02-04T17:19:57.547Z,51.67
2023-02-04T17:22:25.835Z,51.82
2023-02-04T17:24:54.040Z,51.73
2023-02-04T17:27:22.664Z,51.81
2023-02-04T17:29:50.998Z,52.05
2023-02-04T17:32:19.585Z,51.96
2023-02-04T17:34:47.828Z,52.30
2023-02-04T17:37:16.028Z,52.13
2023-02-04T17:39:44.129Z,52.11
2023-02-04T17:42:12.689Z,52.22
2023-02-04T17:44:41.255Z,52.19
2023-02-04T17:47:09.813Z,52.39
2023-02-04T17:49:38.520Z,52.46
2023-02-04T17:52:07.014Z,52.52
2023-02-04T17:54:36.497Z,52.60
2023-02-04T17:57:16.940Z,52.44
2023-02-04T17:59:45.406Z,52.69
2023-02-04T18:02:26.223Z,52.75
2023-02-04T18:04:55.596Z,52.96
2023-02-04T18:07:24.714Z,52.74
2023-02-04T18:09:52.980Z,52.73
2023-02-04T18:12:21.388Z,52.65
2023-02-04T18:14:50.930Z,52.28
2023-02-04T18:17:19.200Z,52.33
2023-02-04T18:19:48.222Z,52.11
2023-02-04T18:22:17.993Z,51.93
2023-02-04T18:24:49.033Z,51.67
2023-02-04T18:27:24.358Z,51.43
2023-02-04T18:29:55.752Z,50.73
2023-02-04T18:32:50.549Z,50.73
2023-02-04T18:35:43.913Z,50.55
2023-02-04T18:38:39.516Z,50.20
2023-02-04T18:41:23.342Z,50.00
2023-02-04T18:44:14.130Z,50.24
2023-02-04T18:46:46.470Z,50.04
2023-02-04T18:49:34.308Z,49.76
2023-02-04T18:52:17.825Z,49.87
2023-02-04T18:54:56.757Z,49.63
2023-02-04T18:57:38.502Z,49.87
2023-02-04T19:00:17.876Z,49.67
2023-02-04T19:02:52.177Z,49.60
2023-02-04T19:05:26.920Z,49.93
2023-02-04T19:08:21.041Z,49.76
2023-02-04T19:10:49.800Z,49.92
2023-02-04T19:13:26.505Z,49.98
2023-02-04T19:16:25.548Z,50.01
2023-02-04T19:18:54.759Z,50.13
2023-02-04T19:21:28.843Z,50.20
2023-02-04T19:24:09.179Z,50.25
2023-02-04T19:26:43.735Z,50.28
2023-02-04T19:29:40.646Z,50.65
2023-02-04T19:32:28.986Z,50.78
2023-02-04T19:35:02.210Z,50.93
2023-02-04T19:37:41.008Z,50.95
2023-02-04T19:40:32.076Z,51.11
2023-02-04T19:43:21.377Z,51.26
2023-02-04T19:57:55.592Z,52.32
2023-02-04T20:00:37.010Z,51.79
2023-02-04T20:03:45.529Z,51.96
2023-02-04T20:06:27.123Z,52.18
2023-02-04T20:08:56.787Z,52.39
2023-02-04T20:11:35.127Z,52.55
2023-02-04T20:14:09.665Z,52.66
2023-02-04T20:16:57.228Z,52.96
2023-02-04T20:19:33.021Z,53.29
2023-02-04T20:22:20.519Z,53.37
2023-02-04T20:24:48.145Z,53.44
2023-02-04T20:27:28.926Z,53.55
2023-02-04T20:30:11.499Z,53.65
2023-02-04T20:32:43.248Z,53.86
2023-02-04T20:35:22.299Z,53.90
2023-02-04T20:37:53.631Z,53.99
2023-02-04T20:40:31.450Z,54.20
2023-02-04T20:43:02.810Z,54.35
2023-02-04T20:45:37.786Z,54.42
2023-02-04T20:48:16.901Z,54.57
2023-02-04T20:50:54.148Z,54.90
2023-02-04T20:53:50.850Z,55.00
2023-02-04T20:56:40.130Z,55.17
2023-02-04T20:59:11.390Z,55.26
2023-02-04T21:01:43.631Z,55.27
2023-02-04T21:04:29.759Z,55.32
2023-02-04T21:07:01.930Z,55.45
2023-02-04T21:09:32.062Z,55.63
2023-02-04T21:11:59.769Z,55.59
2023-02-04T21:14:27.243Z,55.76
2023-02-04T21:16:54.936Z,55.75
2023-02-04T21:19:23.228Z,55.95
2023-02-04T21:21:50.302Z,55.89
2023-02-04T21:24:17.903Z,55.93
2023-02-04T21:26:44.911Z,55.89
2023-02-04T21:29:12.060Z,56.28
2023-02-04T21:31:40.054Z,56.23
2023-02-04T21:34:07.088Z,56.23
2023-02-04T21:36:35.779Z,56.41
2023-02-04T21:39:02.822Z,56.53
2023-02-04T21:41:29.752Z,56.65
2023-02-04T21:43:57.417Z,56.79
2023-02-04T21:46:24.323Z,56.66
2023-02-04T21:48:51.320Z,56.79
2023-02-04T21:51:18.176Z,56.85
2023-02-04T21:53:45.788Z,57.02
2023-02-04T21:56:13.908Z,56.90
2023-02-04T21:58:41.368Z,56.90
2023-02-04T22:01:10.063Z,56.97
2023-02-04T22:03:37.295Z,56.96
2023-02-04T22:06:05.803Z,56.93
2023-02-04T22:08:32.987Z,57.01
2023-02-04T22:11:03.123Z,57.05
2023-02-04T22:13:29.932Z,57.11
2023-02-04T22:15:56.847Z,57.10
2023-02-04T22:18:24.673Z,57.25
2023-02-04T22:20:52.091Z,57.04
2023-02-04T22:23:19.264Z,57.26
2023-02-04T22:25:46.081Z,57.17
2023-02-04T22:28:13.026Z,57.21
2023-02-04T22:30:39.881Z,57.31
2023-02-04T22:33:07.793Z,57.32
2023-02-04T22:35:38.520Z,57.41
2023-02-04T22:38:05.494Z,57.34
2023-02-04T22:40:32.638Z,57.43
2023-02-04T22:42:59.814Z,57.55
2023-02-04T22:45:26.623Z,57.54
2023-02-04T22:47:53.692Z,57.64
2023-02-04T22:50:20.583Z,57.79
2023-02-04T22:52:47.425Z,57.66
2023-02-04T22:55:14.354Z,57.73
2023-02-04T22:57:41.248Z,57.83
2023-02-04T23:00:09.304Z,57.91
2023-02-04T23:02:37.636Z,58.02
2023-02-04T23:05:04.726Z,58.09
2023-02-04T23:07:31.860Z,58.26
2023-02-04T23:09:58.667Z,58.13
2023-02-04T23:12:25.553Z,58.26
2023-02-04T23:14:52.508Z,58.28
2023-02-04T23:17:19.663Z,58.29
2023-02-04T23:19:46.746Z,58.47
2023-02-04T23:22:13.749Z,58.22
2023-02-04T23:24:40.999Z,58.52
2023-02-04T23:27:10.833Z,58.54
2023-02-04T23:29:38.985Z,58.60
2023-02-04T23:32:06.178Z,58.58
2023-02-04T23:34:33.639Z,58.68
2023-02-04T23:37:00.681Z,58.78
2023-02-04T23:39:27.624Z,58.78
2023-02-04T23:41:54.570Z,58.92
2023-02-04T23:44:21.659Z,59.25
2023-02-04T23:46:48.880Z,59.30
2023-02-04T23:49:16.144Z,59.71
2023-02-04T23:51:43.299Z,59.60
2023-02-04T23:54:10.255Z,59.58
2023-02-04T23:56:37.649Z,59.62
2023-02-04T23:59:05.282Z,59.67
